sensor_id;sensor_type;location;lat;lon;timestamp;temperature;humidity
37530;DHT22;23374;52.758;6.872;2023-02-04T00:00:15;7.10;1.00
37530;DHT22;23374;52.758;6.872;2023-02-04T00:02:36;7.10;1.00
37530;DHT22;23374;52.758;6.872;2023-02-04T00:04:58;7.10;1.00
37530;DHT22;23374;52.758;6.872;2023-02-04T00:07:19;7.10;1.00
37530;DHT22;23374;52.758;6.872;2023-02-04T00:09:40;7.10;1.00
37530;DHT22;23374;52.758;6.872;2023-02-04T00:12:00;7.10;1.00
37530;DHT22;23374;52.758;6.872;2023-02-04T00:14:20;7.10;1.00
37530;DHT22;23374;52.758;6.872;2023-02-04T00:16:41;7.20;1.00
37530;DHT22;23374;52.758;6.872;2023-02-04T00:19:01;7.20;1.00
37530;DHT22;23374;52.758;6.872;2023-02-04T00:21:21;7.20;1.00
37530;DHT22;23374;52.758;6.872;2023-02-04T00:23:42;7.20;1.00
37530;DHT22;23374;52.758;6.872;2023-02-04T00:26:03;7.20;1.00
37530;DHT22;23374;52.758;6.872;2023-02-04T00:28:23;7.20;1.00
37530;DHT22;23374;52.758;6.872;2023-02-04T00:30:44;7.20;1.00
37530;DHT22;23374;52.758;6.872;2023-02-04T00:33:04;7.20;1.00
37530;DHT22;23374;52.758;6.872;2023-02-04T00:35:24;7.20;1.00
37530;DHT22;23374;52.758;6.872;2023-02-04T00:37:45;7.20;1.00
37530;DHT22;23374;52.758;6.872;2023-02-04T00:40:07;7.20;1.00
37530;DHT22;23374;52.758;6.872;2023-02-04T00:42:27;7.10;1.00
37530;DHT22;23374;52.758;6.872;2023-02-04T00:44:48;7.10;1.00
37530;DHT22;23374;52.758;6.872;2023-02-04T00:47:08;7.10;1.00
37530;DHT22;23374;52.758;6.872;2023-02-04T00:49:29;7.10;1.00
37530;DHT22;23374;52.758;6.872;2023-02-04T00:51:49;7.10;1.00
37530;DHT22;23374;52.758;6.872;2023-02-04T00:54:10;7.10;1.00
37530;DHT22;23374;52.758;6.872;2023-02-04T00:56:30;7.10;1.00
37530;DHT22;23374;52.758;6.872;2023-02-04T00:58:50;7.10;1.00
37530;DHT22;23374;52.758;6.872;2023-02-04T01:01:10;7.10;1.00
37530;DHT22;23374;52.758;6.872;2023-02-04T01:03:30;7.10;1.00
37530;DHT22;23374;52.758;6.872;2023-02-04T01:05:51;7.10;1.00
37530;DHT22;23374;52.758;6.872;2023-02-04T01:08:11;7.10;1.00
37530;DHT22;23374;52.758;6.872;2023-02-04T01:10:31;7.10;1.00
37530;DHT22;23374;52.758;6.872;2023-02-04T01:12:52;7.10;1.00
37530;DHT22;23374;52.758;6.872;2023-02-04T01:15:12;7.10;1.00
37530;DHT22;23374;52.758;6.872;2023-02-04T01:17:32;7.10;1.00
37530;DHT22;23374;52.758;6.872;2023-02-04T01:19:53;7.10;1.00
37530;DHT22;23374;52.758;6.872;2023-02-04T01:22:13;7.10;10.70
37530;DHT22;23374;52.758;6.872;2023-02-04T01:24:34;7.10;1.00
37530;DHT22;23374;52.758;6.872;2023-02-04T01:26:54;7.10;1.00
37530;DHT22;23374;52.758;6.872;2023-02-04T01:29:15;7.10;1.00
37530;DHT22;23374;52.758;6.872;2023-02-04T01:31:35;7.10;1.00
37530;DHT22;23374;52.758;6.872;2023-02-04T01:33:55;7.10;1.00
37530;DHT22;23374;52.758;6.872;2023-02-04T01:36:16;7.10;1.00
37530;DHT22;23374;52.758;6.872;2023-02-04T01:38:40;7.10;1.00
37530;DHT22;23374;52.758;6.872;2023-02-04T01:41:01;7.10;1.00
37530;DHT22;23374;52.758;6.872;2023-02-04T01:43:23;7.10;1.00
37530;DHT22;23374;52.758;6.872;2023-02-04T01:47:28;7.10;1.00
37530;DHT22;23374;52.758;6.872;2023-02-04T01:49:52;7.10;1.00
37530;DHT22;23374;52.758;6.872;2023-02-04T01:52:14;7.10;1.00
37530;DHT22;23374;52.758;6.872;2023-02-04T01:54:34;7.10;1.00
37530;DHT22;23374;52.758;6.872;2023-02-04T01:56:55;7.10;1.00
37530;DHT22;23374;52.758;6.872;2023-02-04T01:59:17;7.10;1.00
37530;DHT22;23374;52.758;6.872;2023-02-04T02:01:50;7.10;5.30
37530;DHT22;23374;52.758;6.872;2023-02-04T02:04:18;7.00;16.10
37530;DHT22;23374;52.758;6.872;2023-02-04T02:06:44;7.00;17.80
37530;DHT22;23374;52.758;6.872;2023-02-04T02:09:06;7.00;19.10
37530;DHT22;23374;52.758;6.872;2023-02-04T02:11:27;7.00;18.80
37530;DHT22;23374;52.758;6.872;2023-02-04T02:13:47;7.00;25.50
37530;DHT22;23374;52.758;6.872;2023-02-04T02:16:08;7.10;23.90
37530;DHT22;23374;52.758;6.872;2023-02-04T02:18:28;7.10;19.30
37530;DHT22;23374;52.758;6.872;2023-02-04T02:20:48;7.00;20.10
37530;DHT22;23374;52.758;6.872;2023-02-04T02:23:48;7.00;15.20
37530;DHT22;23374;52.758;6.872;2023-02-04T02:26:09;7.00;31.90
37530;DHT22;23374;52.758;6.872;2023-02-04T02:28:30;7.00;43.80
37530;DHT22;23374;52.758;6.872;2023-02-04T02:30:51;7.00;39.90
37530;DHT22;23374;52.758;6.872;2023-02-04T02:33:17;7.00;41.60
37530;DHT22;23374;52.758;6.872;2023-02-04T02:35:38;7.00;52.10
37530;DHT22;23374;52.758;6.872;2023-02-04T02:37:58;7.00;52.40
37530;DHT22;23374;52.758;6.872;2023-02-04T02:40:18;7.00;48.50
37530;DHT22;23374;52.758;6.872;2023-02-04T02:42:39;7.00;46.10
37530;DHT22;23374;52.758;6.872;2023-02-04T02:45:17;7.00;44.10
37530;DHT22;23374;52.758;6.872;2023-02-04T02:47:33;7.10;53.00
37530;DHT22;23374;52.758;6.872;2023-02-04T02:49:54;7.10;35.60
37530;DHT22;23374;52.758;6.872;2023-02-04T02:52:14;7.10;50.50
37530;DHT22;23374;52.758;6.872;2023-02-04T02:54:35;7.10;29.60
37530;DHT22;23374;52.758;6.872;2023-02-04T02:56:56;7.10;31.70
37530;DHT22;23374;52.758;6.872;2023-02-04T02:59:18;7.10;40.20
37530;DHT22;23374;52.758;6.872;2023-02-04T03:01:38;7.10;38.60
37530;DHT22;23374;52.758;6.872;2023-02-04T03:03:59;7.10;39.50
37530;DHT22;23374;52.758;6.872;2023-02-04T03:06:23;7.10;35.60
37530;DHT22;23374;52.758;6.872;2023-02-04T03:08:44;7.10;45.60
37530;DHT22;23374;52.758;6.872;2023-02-04T03:11:06;7.10;55.50
37530;DHT22;23374;52.758;6.872;2023-02-04T03:13:26;7.10;42.70
37530;DHT22;23374;52.758;6.872;2023-02-04T03:15:47;7.10;53.10
37530;DHT22;23374;52.758;6.872;2023-02-04T03:18:08;7.00;71.00
37530;DHT22;23374;52.758;6.872;2023-02-04T03:20:30;7.00;74.40
37530;DHT22;23374;52.758;6.872;2023-02-04T03:22:52;7.10;73.00
37530;DHT22;23374;52.758;6.872;2023-02-04T03:25:13;7.00;68.70
37530;DHT22;23374;52.758;6.872;2023-02-04T03:27:33;7.10;84.80
37530;DHT22;23374;52.758;6.872;2023-02-04T03:29:53;7.10;76.80
37530;DHT22;23374;52.758;6.872;2023-02-04T03:32:13;7.10;88.50
37530;DHT22;23374;52.758;6.872;2023-02-04T03:34:34;7.10;91.60
37530;DHT22;23374;52.758;6.872;2023-02-04T03:36:54;7.10;74.40
37530;DHT22;23374;52.758;6.872;2023-02-04T03:39:15;7.10;90.40
37530;DHT22;23374;52.758;6.872;2023-02-04T03:41:35;7.00;91.20
37530;DHT22;23374;52.758;6.872;2023-02-04T03:43:56;7.00;95.00
37530;DHT22;23374;52.758;6.872;2023-02-04T03:47:38;7.00;99.90
37530;DHT22;23374;52.758;6.872;2023-02-04T03:49:59;7.00;96.60
37530;DHT22;23374;52.758;6.872;2023-02-04T03:52:19;7.00;98.60
37530;DHT22;23374;52.758;6.872;2023-02-04T03:54:39;7.00;99.90
37530;DHT22;23374;52.758;6.872;2023-02-04T03:56:59;7.00;99.90
37530;DHT22;23374;52.758;6.872;2023-02-04T03:59:19;7.00;99.90
37530;DHT22;23374;52.758;6.872;2023-02-04T04:01:39;7.10;99.90
37530;DHT22;23374;52.758;6.872;2023-02-04T04:04:00;7.10;99.90
37530;DHT22;23374;52.758;6.872;2023-02-04T04:06:20;7.10;99.90
37530;DHT22;23374;52.758;6.872;2023-02-04T04:08:41;7.10;99.90
37530;DHT22;23374;52.758;6.872;2023-02-04T04:11:01;7.10;99.90
37530;DHT22;23374;52.758;6.872;2023-02-04T04:13:22;7.10;99.90
37530;DHT22;23374;52.758;6.872;2023-02-04T04:15:42;7.10;99.90
37530;DHT22;23374;52.758;6.872;2023-02-04T04:18:02;7.10;99.90
37530;DHT22;23374;52.758;6.872;2023-02-04T04:20:23;7.10;99.90
37530;DHT22;23374;52.758;6.872;2023-02-04T04:22:44;7.10;99.90
37530;DHT22;23374;52.758;6.872;2023-02-04T04:25:06;7.10;99.90
37530;DHT22;23374;52.758;6.872;2023-02-04T04:27:27;7.10;99.90
37530;DHT22;23374;52.758;6.872;2023-02-04T04:29:48;7.10;99.90
37530;DHT22;23374;52.758;6.872;2023-02-04T04:32:08;7.20;99.90
37530;DHT22;23374;52.758;6.872;2023-02-04T04:34:28;7.10;99.90
37530;DHT22;23374;52.758;6.872;2023-02-04T04:36:48;7.20;99.90
37530;DHT22;23374;52.758;6.872;2023-02-04T04:39:08;7.20;99.90
37530;DHT22;23374;52.758;6.872;2023-02-04T04:41:29;7.10;99.90
37530;DHT22;23374;52.758;6.872;2023-02-04T04:43:49;7.10;99.90
37530;DHT22;23374;52.758;6.872;2023-02-04T04:47:43;7.10;99.90
37530;DHT22;23374;52.758;6.872;2023-02-04T04:50:04;7.20;99.90
37530;DHT22;23374;52.758;6.872;2023-02-04T04:52:25;7.20;99.90
37530;DHT22;23374;52.758;6.872;2023-02-04T04:54:45;7.20;99.90
37530;DHT22;23374;52.758;6.872;2023-02-04T04:57:05;7.20;99.90
37530;DHT22;23374;52.758;6.872;2023-02-04T04:59:25;7.20;99.90
37530;DHT22;23374;52.758;6.872;2023-02-04T05:01:46;7.20;99.90
37530;DHT22;23374;52.758;6.872;2023-02-04T05:04:06;7.20;99.90
37530;DHT22;23374;52.758;6.872;2023-02-04T05:06:26;7.20;99.90
37530;DHT22;23374;52.758;6.872;2023-02-04T05:08:47;7.20;99.90
37530;DHT22;23374;52.758;6.872;2023-02-04T05:11:07;7.20;99.90
37530;DHT22;23374;52.758;6.872;2023-02-04T05:13:28;7.20;99.90
37530;DHT22;23374;52.758;6.872;2023-02-04T05:15:48;7.20;99.90
37530;DHT22;23374;52.758;6.872;2023-02-04T05:18:08;7.10;99.90
37530;DHT22;23374;52.758;6.872;2023-02-04T05:20:29;7.10;99.90
37530;DHT22;23374;52.758;6.872;2023-02-04T05:22:49;7.10;99.90
37530;DHT22;23374;52.758;6.872;2023-02-04T05:25:09;7.10;99.90
37530;DHT22;23374;52.758;6.872;2023-02-04T05:27:30;7.10;99.90
37530;DHT22;23374;52.758;6.872;2023-02-04T05:29:50;7.10;99.90
37530;DHT22;23374;52.758;6.872;2023-02-04T05:32:10;7.10;99.90
37530;DHT22;23374;52.758;6.872;2023-02-04T05:34:31;7.10;99.90
37530;DHT22;23374;52.758;6.872;2023-02-04T05:36:51;7.10;99.90
37530;DHT22;23374;52.758;6.872;2023-02-04T05:39:12;7.10;99.90
37530;DHT22;23374;52.758;6.872;2023-02-04T05:41:32;7.10;99.90
37530;DHT22;23374;52.758;6.872;2023-02-04T05:43:52;7.10;99.90
37530;DHT22;23374;52.758;6.872;2023-02-04T05:47:49;7.10;99.90
37530;DHT22;23374;52.758;6.872;2023-02-04T05:50:09;7.10;99.90
37530;DHT22;23374;52.758;6.872;2023-02-04T05:52:30;7.10;99.90
37530;DHT22;23374;52.758;6.872;2023-02-04T05:54:50;7.00;99.90
37530;DHT22;23374;52.758;6.872;2023-02-04T05:57:10;7.00;99.90
37530;DHT22;23374;52.758;6.872;2023-02-04T05:59:30;7.00;99.90
37530;DHT22;23374;52.758;6.872;2023-02-04T06:01:50;7.00;99.90
37530;DHT22;23374;52.758;6.872;2023-02-04T06:04:11;7.00;99.90
37530;DHT22;23374;52.758;6.872;2023-02-04T06:06:31;7.00;99.90
37530;DHT22;23374;52.758;6.872;2023-02-04T06:08:51;7.00;99.90
37530;DHT22;23374;52.758;6.872;2023-02-04T06:11:11;7.00;99.90
37530;DHT22;23374;52.758;6.872;2023-02-04T06:13:31;7.00;99.90
37530;DHT22;23374;52.758;6.872;2023-02-04T06:15:51;7.00;99.90
37530;DHT22;23374;52.758;6.872;2023-02-04T06:18:12;7.00;99.90
37530;DHT22;23374;52.758;6.872;2023-02-04T06:20:33;7.00;99.90
37530;DHT22;23374;52.758;6.872;2023-02-04T06:22:53;7.00;99.90
37530;DHT22;23374;52.758;6.872;2023-02-04T06:25:13;7.00;99.90
37530;DHT22;23374;52.758;6.872;2023-02-04T06:27:34;7.00;99.90
37530;DHT22;23374;52.758;6.872;2023-02-04T06:29:54;7.00;84.80
37530;DHT22;23374;52.758;6.872;2023-02-04T06:32:14;6.90;43.60
37530;DHT22;23374;52.758;6.872;2023-02-04T06:34:35;6.90;61.90
37530;DHT22;23374;52.758;6.872;2023-02-04T06:36:55;6.90;68.10
37530;DHT22;23374;52.758;6.872;2023-02-04T06:39:15;6.90;51.90
37530;DHT22;23374;52.758;6.872;2023-02-04T06:41:35;6.90;40.70
37530;DHT22;23374;52.758;6.872;2023-02-04T06:43:55;6.80;44.40
37530;DHT22;23374;52.758;6.872;2023-02-04T06:46:16;6.80;40.50
37530;DHT22;23374;52.758;6.872;2023-02-04T06:48:36;6.80;69.70
37530;DHT22;23374;52.758;6.872;2023-02-04T06:50:57;6.70;22.40
37530;DHT22;23374;52.758;6.872;2023-02-04T06:53:17;6.70;31.60
37530;DHT22;23374;52.758;6.872;2023-02-04T06:55:37;6.70;1.00
37530;DHT22;23374;52.758;6.872;2023-02-04T06:57:57;6.60;1.00
37530;DHT22;23374;52.758;6.872;2023-02-04T07:00:19;6.60;1.00
37530;DHT22;23374;52.758;6.872;2023-02-04T07:02:39;6.60;1.00
37530;DHT22;23374;52.758;6.872;2023-02-04T07:05:02;6.50;1.00
37530;DHT22;23374;52.758;6.872;2023-02-04T07:07:22;6.50;1.00
37530;DHT22;23374;52.758;6.872;2023-02-04T07:09:42;6.50;1.00
37530;DHT22;23374;52.758;6.872;2023-02-04T07:12:03;6.50;1.00
37530;DHT22;23374;52.758;6.872;2023-02-04T07:14:23;6.50;1.00
37530;DHT22;23374;52.758;6.872;2023-02-04T07:16:43;6.40;99.90
37530;DHT22;23374;52.758;6.872;2023-02-04T07:19:04;6.40;99.90
37530;DHT22;23374;52.758;6.872;2023-02-04T07:21:24;6.40;99.90
37530;DHT22;23374;52.758;6.872;2023-02-04T07:23:45;6.40;99.90
37530;DHT22;23374;52.758;6.872;2023-02-04T07:26:06;6.40;99.90
37530;DHT22;23374;52.758;6.872;2023-02-04T07:28:26;6.40;99.90
37530;DHT22;23374;52.758;6.872;2023-02-04T07:30:47;6.40;99.90
37530;DHT22;23374;52.758;6.872;2023-02-04T07:33:07;6.40;1.00
37530;DHT22;23374;52.758;6.872;2023-02-04T07:35:27;6.30;1.00
37530;DHT22;23374;52.758;6.872;2023-02-04T07:37:48;6.30;14.00
37530;DHT22;23374;52.758;6.872;2023-02-04T07:40:11;6.30;1.00
37530;DHT22;23374;52.758;6.872;2023-02-04T07:42:31;6.40;99.90
37530;DHT22;23374;52.758;6.872;2023-02-04T07:44:51;6.40;92.90
37530;DHT22;23374;52.758;6.872;2023-02-04T07:47:13;6.40;1.00
37530;DHT22;23374;52.758;6.872;2023-02-04T07:49:33;6.40;17.50
37530;DHT22;23374;52.758;6.872;2023-02-04T07:51:53;6.30;1.00
37530;DHT22;23374;52.758;6.872;2023-02-04T07:54:14;6.30;1.00
37530;DHT22;23374;52.758;6.872;2023-02-04T07:56:34;6.30;1.00
37530;DHT22;23374;52.758;6.872;2023-02-04T07:58:54;6.30;1.00
37530;DHT22;23374;52.758;6.872;2023-02-04T08:01:15;6.30;1.00
37530;DHT22;23374;52.758;6.872;2023-02-04T08:03:35;6.30;1.00
37530;DHT22;23374;52.758;6.872;2023-02-04T08:05:56;6.30;1.00
37530;DHT22;23374;52.758;6.872;2023-02-04T08:08:16;6.30;27.00
37530;DHT22;23374;52.758;6.872;2023-02-04T08:10:36;6.40;41.30
37530;DHT22;23374;52.758;6.872;2023-02-04T08:12:56;6.30;1.00
37530;DHT22;23374;52.758;6.872;2023-02-04T08:15:17;6.30;1.00
37530;DHT22;23374;52.758;6.872;2023-02-04T08:17:38;6.30;1.00
37530;DHT22;23374;52.758;6.872;2023-02-04T08:19:58;6.30;1.00
37530;DHT22;23374;52.758;6.872;2023-02-04T08:22:18;6.40;45.30
37530;DHT22;23374;52.758;6.872;2023-02-04T08:24:39;6.40;1.00
37530;DHT22;23374;52.758;6.872;2023-02-04T08:26:59;6.40;1.00
37530;DHT22;23374;52.758;6.872;2023-02-04T08:29:20;6.40;1.00
37530;DHT22;23374;52.758;6.872;2023-02-04T08:31:40;6.30;1.00
37530;DHT22;23374;52.758;6.872;2023-02-04T08:34:00;6.30;1.00
37530;DHT22;23374;52.758;6.872;2023-02-04T08:36:21;6.30;1.00
37530;DHT22;23374;52.758;6.872;2023-02-04T08:38:41;6.30;1.00
37530;DHT22;23374;52.758;6.872;2023-02-04T08:41:03;6.30;1.00
37530;DHT22;23374;52.758;6.872;2023-02-04T08:43:23;6.20;1.00
37530;DHT22;23374;52.758;6.872;2023-02-04T08:45:44;6.30;1.00
37530;DHT22;23374;52.758;6.872;2023-02-04T08:48:04;6.30;1.00
37530;DHT22;23374;52.758;6.872;2023-02-04T08:50:26;6.30;1.00
37530;DHT22;23374;52.758;6.872;2023-02-04T08:52:48;6.30;1.00
37530;DHT22;23374;52.758;6.872;2023-02-04T08:55:08;6.30;1.00
37530;DHT22;23374;52.758;6.872;2023-02-04T08:57:28;6.40;1.00
37530;DHT22;23374;52.758;6.872;2023-02-04T08:59:48;6.40;99.90
37530;DHT22;23374;52.758;6.872;2023-02-04T09:02:09;6.40;1.00
37530;DHT22;23374;52.758;6.872;2023-02-04T09:04:29;6.40;1.00
37530;DHT22;23374;52.758;6.872;2023-02-04T09:06:50;6.50;1.00
37530;DHT22;23374;52.758;6.872;2023-02-04T09:09:11;6.50;1.00
37530;DHT22;23374;52.758;6.872;2023-02-04T09:11:32;6.40;1.00
37530;DHT22;23374;52.758;6.872;2023-02-04T09:13:52;6.40;99.90
37530;DHT22;23374;52.758;6.872;2023-02-04T09:16:15;6.50;99.90
37530;DHT22;23374;52.758;6.872;2023-02-04T09:18:36;6.50;99.90
37530;DHT22;23374;52.758;6.872;2023-02-04T09:20:57;6.50;1.00
37530;DHT22;23374;52.758;6.872;2023-02-04T09:23:18;6.60;99.90
37530;DHT22;23374;52.758;6.872;2023-02-04T09:25:39;6.60;99.90
37530;DHT22;23374;52.758;6.872;2023-02-04T09:28:02;6.60;99.90
37530;DHT22;23374;52.758;6.872;2023-02-04T09:30:23;6.60;1.00
37530;DHT22;23374;52.758;6.872;2023-02-04T09:32:43;6.50;99.90
37530;DHT22;23374;52.758;6.872;2023-02-04T09:35:04;6.60;99.90
37530;DHT22;23374;52.758;6.872;2023-02-04T09:37:24;6.60;99.90
37530;DHT22;23374;52.758;6.872;2023-02-04T09:39:45;6.60;33.80
37530;DHT22;23374;52.758;6.872;2023-02-04T09:42:07;6.70;99.90
37530;DHT22;23374;52.758;6.872;2023-02-04T09:44:28;6.70;1.00
37530;DHT22;23374;52.758;6.872;2023-02-04T09:46:55;6.70;1.00
37530;DHT22;23374;52.758;6.872;2023-02-04T09:49:16;6.70;1.00
37530;DHT22;23374;52.758;6.872;2023-02-04T09:51:36;6.70;1.00
37530;DHT22;23374;52.758;6.872;2023-02-04T09:54:12;6.80;9.40
37530;DHT22;23374;52.758;6.872;2023-02-04T09:56:33;6.80;1.00
37530;DHT22;23374;52.758;6.872;2023-02-04T09:58:53;6.80;99.90
37530;DHT22;23374;52.758;6.872;2023-02-04T10:01:17;6.90;99.90
37530;DHT22;23374;52.758;6.872;2023-02-04T10:03:40;6.90;99.90
37530;DHT22;23374;52.758;6.872;2023-02-04T10:06:07;6.90;99.90
37530;DHT22;23374;52.758;6.872;2023-02-04T10:08:30;6.90;99.90
37530;DHT22;23374;52.758;6.872;2023-02-04T10:10:51;7.00;74.50
37530;DHT22;23374;52.758;6.872;2023-02-04T10:13:20;7.00;99.90
37530;DHT22;23374;52.758;6.872;2023-02-04T10:15:44;7.00;99.90
37530;DHT22;23374;52.758;6.872;2023-02-04T10:18:07;7.00;1.00
37530;DHT22;23374;52.758;6.872;2023-02-04T10:20:27;7.00;1.00
37530;DHT22;23374;52.758;6.872;2023-02-04T10:22:50;7.00;1.00
37530;DHT22;23374;52.758;6.872;2023-02-04T10:25:17;7.00;1.00
37530;DHT22;23374;52.758;6.872;2023-02-04T10:27:59;7.00;1.00
37530;DHT22;23374;52.758;6.872;2023-02-04T10:30:26;7.00;1.00
37530;DHT22;23374;52.758;6.872;2023-02-04T10:32:47;7.00;99.90
37530;DHT22;23374;52.758;6.872;2023-02-04T10:35:14;7.00;1.00
37530;DHT22;23374;52.758;6.872;2023-02-04T10:37:35;7.00;13.70
37530;DHT22;23374;52.758;6.872;2023-02-04T10:39:55;7.00;99.90
37530;DHT22;23374;52.758;6.872;2023-02-04T10:42:27;7.00;1.00
37530;DHT22;23374;52.758;6.872;2023-02-04T10:44:49;7.10;1.00
37530;DHT22;23374;52.758;6.872;2023-02-04T10:47:27;7.20;1.00
37530;DHT22;23374;52.758;6.872;2023-02-04T10:50:09;7.20;1.00
37530;DHT22;23374;52.758;6.872;2023-02-04T10:52:39;7.20;99.90
37530;DHT22;23374;52.758;6.872;2023-02-04T10:55:04;7.30;99.90
37530;DHT22;23374;52.758;6.872;2023-02-04T10:57:29;7.30;1.00
37530;DHT22;23374;52.758;6.872;2023-02-04T10:59:53;7.40;99.90
37530;DHT22;23374;52.758;6.872;2023-02-04T11:03:47;7.40;1.00
37530;DHT22;23374;52.758;6.872;2023-02-04T11:06:23;7.30;1.00
37530;DHT22;23374;52.758;6.872;2023-02-04T11:08:43;7.30;99.90
37530;DHT22;23374;52.758;6.872;2023-02-04T11:11:26;7.30;1.00
37530;DHT22;23374;52.758;6.872;2023-02-04T11:14:04;7.30;99.90
37530;DHT22;23374;52.758;6.872;2023-02-04T11:16:47;7.40;1.00
37530;DHT22;23374;52.758;6.872;2023-02-04T11:19:12;7.40;1.00
37530;DHT22;23374;52.758;6.872;2023-02-04T11:21:44;7.40;1.00
37530;DHT22;23374;52.758;6.872;2023-02-04T11:24:38;7.50;1.00
37530;DHT22;23374;52.758;6.872;2023-02-04T11:27:23;7.60;1.00
37530;DHT22;23374;52.758;6.872;2023-02-04T11:29:49;7.60;1.00
37530;DHT22;23374;52.758;6.872;2023-02-04T11:32:36;7.60;99.90
37530;DHT22;23374;52.758;6.872;2023-02-04T11:35:22;7.60;48.00
37530;DHT22;23374;52.758;6.872;2023-02-04T11:37:42;7.60;1.00
37530;DHT22;23374;52.758;6.872;2023-02-04T11:40:29;7.50;99.90
37530;DHT22;23374;52.758;6.872;2023-02-04T11:43:02;7.50;52.50
37530;DHT22;23374;52.758;6.872;2023-02-04T11:45:34;7.50;1.00
37530;DHT22;23374;52.758;6.872;2023-02-04T11:47:58;7.50;35.40
37530;DHT22;23374;52.758;6.872;2023-02-04T11:50:30;7.50;99.90
37530;DHT22;23374;52.758;6.872;2023-02-04T11:52:53;7.50;99.90
37530;DHT22;23374;52.758;6.872;2023-02-04T11:55:13;7.50;1.00
37530;DHT22;23374;52.758;6.872;2023-02-04T11:57:42;7.60;1.00
37530;DHT22;23374;52.758;6.872;2023-02-04T12:00:04;7.60;99.90
37530;DHT22;23374;52.758;6.872;2023-02-04T12:02:24;7.60;99.90
37530;DHT22;23374;52.758;6.872;2023-02-04T12:05:16;7.60;1.00
37530;DHT22;23374;52.758;6.872;2023-02-04T12:07:37;7.70;1.00
37530;DHT22;23374;52.758;6.872;2023-02-04T12:09:58;7.70;1.00
37530;DHT22;23374;52.758;6.872;2023-02-04T12:12:30;7.70;99.90
37530;DHT22;23374;52.758;6.872;2023-02-04T12:15:14;7.70;1.00
37530;DHT22;23374;52.758;6.872;2023-02-04T12:17:34;7.70;99.90
37530;DHT22;23374;52.758;6.872;2023-02-04T12:19:55;7.80;1.00
37530;DHT22;23374;52.758;6.872;2023-02-04T12:22:15;7.80;99.90
37530;DHT22;23374;52.758;6.872;2023-02-04T12:24:36;7.80;1.00
37530;DHT22;23374;52.758;6.872;2023-02-04T12:26:56;7.80;1.00
37530;DHT22;23374;52.758;6.872;2023-02-04T12:29:17;7.80;1.00
37530;DHT22;23374;52.758;6.872;2023-02-04T12:31:37;7.80;1.00
37530;DHT22;23374;52.758;6.872;2023-02-04T12:33:58;7.80;1.00
37530;DHT22;23374;52.758;6.872;2023-02-04T12:36:18;7.90;99.90
37530;DHT22;23374;52.758;6.872;2023-02-04T12:38:39;7.80;7.90
37530;DHT22;23374;52.758;6.872;2023-02-04T12:40:59;7.80;62.80
37530;DHT22;23374;52.758;6.872;2023-02-04T12:43:20;7.80;99.90
37530;DHT22;23374;52.758;6.872;2023-02-04T12:45:40;7.80;99.90
37530;DHT22;23374;52.758;6.872;2023-02-04T12:48:05;7.90;1.00
37530;DHT22;23374;52.758;6.872;2023-02-04T12:50:25;7.90;1.00
37530;DHT22;23374;52.758;6.872;2023-02-04T12:52:46;7.90;1.00
37530;DHT22;23374;52.758;6.872;2023-02-04T12:55:08;7.90;1.00
37530;DHT22;23374;52.758;6.872;2023-02-04T12:57:28;7.90;1.00
37530;DHT22;23374;52.758;6.872;2023-02-04T12:59:48;7.80;1.00
37530;DHT22;23374;52.758;6.872;2023-02-04T13:02:09;7.80;18.20
37530;DHT22;23374;52.758;6.872;2023-02-04T13:04:30;7.80;1.00
37530;DHT22;23374;52.758;6.872;2023-02-04T13:06:50;7.80;1.00
37530;DHT22;23374;52.758;6.872;2023-02-04T13:09:10;7.70;1.00
37530;DHT22;23374;52.758;6.872;2023-02-04T13:11:30;7.70;99.90
37530;DHT22;23374;52.758;6.872;2023-02-04T13:13:50;7.70;99.90
37530;DHT22;23374;52.758;6.872;2023-02-04T13:16:10;7.70;1.00
37530;DHT22;23374;52.758;6.872;2023-02-04T13:18:31;7.80;1.00
37530;DHT22;23374;52.758;6.872;2023-02-04T13:20:53;7.80;1.00
37530;DHT22;23374;52.758;6.872;2023-02-04T13:23:13;7.80;77.50
37530;DHT22;23374;52.758;6.872;2023-02-04T13:25:33;7.80;1.00
37530;DHT22;23374;52.758;6.872;2023-02-04T13:27:53;7.90;99.90
37530;DHT22;23374;52.758;6.872;2023-02-04T13:30:14;7.90;99.90
37530;DHT22;23374;52.758;6.872;2023-02-04T13:32:34;7.90;99.90
37530;DHT22;23374;52.758;6.872;2023-02-04T13:34:55;7.90;99.90
37530;DHT22;23374;52.758;6.872;2023-02-04T13:37:16;8.00;99.90
37530;DHT22;23374;52.758;6.872;2023-02-04T13:39:36;8.00;99.90
37530;DHT22;23374;52.758;6.872;2023-02-04T13:41:56;8.10;99.90
37530;DHT22;23374;52.758;6.872;2023-02-04T13:44:16;8.10;99.90
37530;DHT22;23374;52.758;6.872;2023-02-04T13:46:37;8.20;1.00
37530;DHT22;23374;52.758;6.872;2023-02-04T13:48:57;8.20;1.00
37530;DHT22;23374;52.758;6.872;2023-02-04T13:51:18;8.10;1.00
37530;DHT22;23374;52.758;6.872;2023-02-04T13:53:39;8.20;99.90
37530;DHT22;23374;52.758;6.872;2023-02-04T13:56:00;8.20;99.90
37530;DHT22;23374;52.758;6.872;2023-02-04T13:58:20;8.30;99.90
37530;DHT22;23374;52.758;6.872;2023-02-04T14:00:41;8.40;99.90
37530;DHT22;23374;52.758;6.872;2023-02-04T14:03:01;8.40;99.90
37530;DHT22;23374;52.758;6.872;2023-02-04T14:05:21;8.40;1.00
37530;DHT22;23374;52.758;6.872;2023-02-04T14:07:41;8.40;1.00
37530;DHT22;23374;52.758;6.872;2023-02-04T14:10:02;8.40;1.00
37530;DHT22;23374;52.758;6.872;2023-02-04T14:12:23;8.40;1.00
37530;DHT22;23374;52.758;6.872;2023-02-04T14:14:43;8.40;1.00
37530;DHT22;23374;52.758;6.872;2023-02-04T14:17:04;8.30;1.00
37530;DHT22;23374;52.758;6.872;2023-02-04T14:19:24;8.30;1.00
37530;DHT22;23374;52.758;6.872;2023-02-04T14:21:46;8.30;1.00
37530;DHT22;23374;52.758;6.872;2023-02-04T14:24:09;8.20;1.00
37530;DHT22;23374;52.758;6.872;2023-02-04T14:26:29;8.20;1.00
37530;DHT22;23374;52.758;6.872;2023-02-04T14:28:49;8.10;1.00
37530;DHT22;23374;52.758;6.872;2023-02-04T14:31:10;8.10;67.10
37530;DHT22;23374;52.758;6.872;2023-02-04T14:33:30;8.10;1.00
37530;DHT22;23374;52.758;6.872;2023-02-04T14:35:50;8.00;99.90
37530;DHT22;23374;52.758;6.872;2023-02-04T14:38:11;8.00;99.90
37530;DHT22;23374;52.758;6.872;2023-02-04T14:40:34;8.00;1.00
37530;DHT22;23374;52.758;6.872;2023-02-04T14:42:54;7.90;99.90
37530;DHT22;23374;52.758;6.872;2023-02-04T14:45:15;7.90;99.90
37530;DHT22;23374;52.758;6.872;2023-02-04T14:47:36;8.00;99.90
37530;DHT22;23374;52.758;6.872;2023-02-04T14:49:57;8.00;99.90
37530;DHT22;23374;52.758;6.872;2023-02-04T14:52:17;8.00;1.00
37530;DHT22;23374;52.758;6.872;2023-02-04T14:54:37;8.00;1.00
37530;DHT22;23374;52.758;6.872;2023-02-04T14:56:58;8.00;1.00
37530;DHT22;23374;52.758;6.872;2023-02-04T14:59:18;8.00;94.10
37530;DHT22;23374;52.758;6.872;2023-02-04T15:01:38;8.00;16.50
37530;DHT22;23374;52.758;6.872;2023-02-04T15:03:59;8.00;99.90
37530;DHT22;23374;52.758;6.872;2023-02-04T15:06:19;8.00;99.90
37530;DHT22;23374;52.758;6.872;2023-02-04T15:08:40;8.10;8.40
37530;DHT22;23374;52.758;6.872;2023-02-04T15:11:00;8.10;59.20
37530;DHT22;23374;52.758;6.872;2023-02-04T15:13:21;8.10;13.20
37530;DHT22;23374;52.758;6.872;2023-02-04T15:15:41;8.10;13.90
37530;DHT22;23374;52.758;6.872;2023-02-04T15:18:01;8.00;1.00
37530;DHT22;23374;52.758;6.872;2023-02-04T15:20:22;8.00;1.00
37530;DHT22;23374;52.758;6.872;2023-02-04T15:22:42;8.00;1.00
37530;DHT22;23374;52.758;6.872;2023-02-04T15:25:02;7.90;1.00